sensor_id;sensor_type;location;lat;lon;timestamp;P1;durP1;ratioP1;P2;durP2;ratioP2
25349;SDS011;13302;48.796;11.978;2023-06-14T00:00:02;2.33;;;2.23;;
25349;SDS011;13302;48.796;11.978;2023-06-14T00:02:51;2.73;;;2.53;;
25349;SDS011;13302;48.796;11.978;2023-06-14T00:05:43;2.57;;;2.47;;
25349;SDS011;13302;48.796;11.978;2023-06-14T00:08:30;2.50;;;2.30;;
25349;SDS011;13302;48.796;11.978;2023-06-14T00:11:17;2.60;;;2.40;;
25349;SDS011;13302;48.796;11.978;2023-06-14T00:14:04;2.80;;;2.60;;
25349;SDS011;13302;48.796;11.978;2023-06-14T00:16:52;2.57;;;2.20;;
25349;SDS011;13302;48.796;11.978;2023-06-14T00:19:45;2.70;;;2.50;;
25349;SDS011;13302;48.796;11.978;2023-06-14T00:22:33;2.50;;;2.30;;
25349;SDS011;13302;48.796;11.978;2023-06-14T00:25:23;2.50;;;2.40;;
25349;SDS011;13302;48.796;11.978;2023-06-14T00:28:16;2.40;;;2.30;;
25349;SDS011;13302;48.796;11.978;2023-06-14T00:31:03;3.47;;;2.50;;
25349;SDS011;13302;48.796;11.978;2023-06-14T00:33:50;2.27;;;2.17;;
25349;SDS011;13302;48.796;11.978;2023-06-14T00:36:37;2.13;;;2.03;;
25349;SDS011;13302;48.796;11.978;2023-06-14T00:39:25;2.50;;;2.30;;
25349;SDS011;13302;48.796;11.978;2023-06-14T00:42:22;3.93;;;2.43;;
25349;SDS011;13302;48.796;11.978;2023-06-14T00:45:10;2.50;;;2.30;;
25349;SDS011;13302;48.796;11.978;2023-06-14T00:47:57;2.90;;;2.10;;
25349;SDS011;13302;48.796;11.978;2023-06-14T00:50:45;2.40;;;2.20;;
25349;SDS011;13302;48.796;11.978;2023-06-14T00:53:32;3.07;;;2.10;;
25349;SDS011;13302;48.796;11.978;2023-06-14T00:56:23;2.10;;;2.00;;
25349;SDS011;13302;48.796;11.978;2023-06-14T00:59:10;2.17;;;2.07;;
25349;SDS011;13302;48.796;11.978;2023-06-14T01:01:58;2.33;;;2.23;;
25349;SDS011;13302;48.796;11.978;2023-06-14T01:04:46;2.70;;;2.43;;
25349;SDS011;13302;48.796;11.978;2023-06-14T01:10:40;3.20;;;2.90;;
25349;SDS011;13302;48.796;11.978;2023-06-14T01:13:46;2.63;;;2.53;;
25349;SDS011;13302;48.796;11.978;2023-06-14T01:16:34;3.77;;;2.47;;
25349;SDS011;13302;48.796;11.978;2023-06-14T01:19:23;2.40;;;2.30;;
25349;SDS011;13302;48.796;11.978;2023-06-14T01:22:12;3.23;;;2.37;;
25349;SDS011;13302;48.796;11.978;2023-06-14T01:25:00;2.43;;;2.30;;
25349;SDS011;13302;48.796;11.978;2023-06-14T01:27:48;2.40;;;2.20;;
25349;SDS011;13302;48.796;11.978;2023-06-14T01:30:38;2.90;;;2.73;;
25349;SDS011;13302;48.796;11.978;2023-06-14T01:33:29;2.87;;;2.30;;
25349;SDS011;13302;48.796;11.978;2023-06-14T01:36:19;2.80;;;2.60;;
25349;SDS011;13302;48.796;11.978;2023-06-14T01:39:08;2.37;;;2.27;;
25349;SDS011;13302;48.796;11.978;2023-06-14T01:41:56;2.27;;;2.17;;
25349;SDS011;13302;48.796;11.978;2023-06-14T01:44:45;2.70;;;2.50;;
25349;SDS011;13302;48.796;11.978;2023-06-14T01:47:34;2.70;;;2.43;;
25349;SDS011;13302;48.796;11.978;2023-06-14T01:50:22;2.63;;;2.47;;
25349;SDS011;13302;48.796;11.978;2023-06-14T01:53:09;4.10;;;2.00;;
25349;SDS011;13302;48.796;11.978;2023-06-14T01:55:57;2.47;;;2.33;;
25349;SDS011;13302;48.796;11.978;2023-06-14T01:58:44;2.50;;;2.40;;
25349;SDS011;13302;48.796;11.978;2023-06-14T02:01:31;3.00;;;2.70;;
25349;SDS011;13302;48.796;11.978;2023-06-14T02:04:21;2.50;;;2.30;;
25349;SDS011;13302;48.796;11.978;2023-06-14T02:07:08;2.70;;;2.50;;
25349;SDS011;13302;48.796;11.978;2023-06-14T02:09:55;2.50;;;2.40;;
25349;SDS011;13302;48.796;11.978;2023-06-14T02:12:42;3.13;;;2.67;;
25349;SDS011;13302;48.796;11.978;2023-06-14T02:15:30;2.90;;;2.67;;
25349;SDS011;13302;48.796;11.978;2023-06-14T02:18:23;2.73;;;2.57;;
25349;SDS011;13302;48.796;11.978;2023-06-14T02:21:10;2.30;;;2.20;;
25349;SDS011;13302;48.796;11.978;2023-06-14T02:23:57;3.40;;;2.90;;
25349;SDS011;13302;48.796;11.978;2023-06-14T02:26:47;2.73;;;2.53;;
25349;SDS011;13302;48.796;11.978;2023-06-14T02:29:34;2.63;;;2.53;;
25349;SDS011;13302;48.796;11.978;2023-06-14T02:32:23;2.67;;;2.47;;
25349;SDS011;13302;48.796;11.978;2023-06-14T02:35:10;2.60;;;2.50;;
25349;SDS011;13302;48.796;11.978;2023-06-14T02:37:57;2.70;;;2.50;;
25349;SDS011;13302;48.796;11.978;2023-06-14T02:40:44;3.10;;;2.90;;
25349;SDS011;13302;48.796;11.978;2023-06-14T02:43:31;2.50;;;2.30;;
25349;SDS011;13302;48.796;11.978;2023-06-14T02:46:18;2.67;;;2.50;;
25349;SDS011;13302;48.796;11.978;2023-06-14T02:49:06;2.70;;;2.50;;
25349;SDS011;13302;48.796;11.978;2023-06-14T02:51:53;2.43;;;2.20;;
25349;SDS011;13302;48.796;11.978;2023-06-14T02:54:40;2.90;;;2.70;;
25349;SDS011;13302;48.796;11.978;2023-06-14T02:57:29;2.83;;;2.60;;
25349;SDS011;13302;48.796;11.978;2023-06-14T03:00:16;2.80;;;2.70;;
25349;SDS011;13302;48.796;11.978;2023-06-14T03:03:06;2.90;;;2.53;;
25349;SDS011;13302;48.796;11.978;2023-06-14T03:06:01;2.73;;;2.30;;
25349;SDS011;13302;48.796;11.978;2023-06-14T03:08:53;2.73;;;2.60;;
25349;SDS011;13302;48.796;11.978;2023-06-14T03:11:42;2.30;;;2.20;;
25349;SDS011;13302;48.796;11.978;2023-06-14T03:14:30;3.07;;;2.60;;
25349;SDS011;13302;48.796;11.978;2023-06-14T03:17:19;3.10;;;2.90;;
25349;SDS011;13302;48.796;11.978;2023-06-14T03:20:07;2.83;;;2.37;;
25349;SDS011;13302;48.796;11.978;2023-06-14T03:22:55;3.20;;;2.77;;
25349;SDS011;13302;48.796;11.978;2023-06-14T03:25:42;2.90;;;2.70;;
25349;SDS011;13302;48.796;11.978;2023-06-14T03:28:31;2.67;;;2.57;;
25349;SDS011;13302;48.796;11.978;2023-06-14T03:31:19;2.97;;;2.67;;
25349;SDS011;13302;48.796;11.978;2023-06-14T03:34:07;2.93;;;2.70;;
25349;SDS011;13302;48.796;11.978;2023-06-14T03:36:54;2.70;;;2.60;;
25349;SDS011;13302;48.796;11.978;2023-06-14T03:39:42;2.80;;;2.60;;
25349;SDS011;13302;48.796;11.978;2023-06-14T03:42:36;3.07;;;2.83;;
25349;SDS011;13302;48.796;11.978;2023-06-14T03:45:24;2.50;;;2.40;;
25349;SDS011;13302;48.796;11.978;2023-06-14T03:48:11;2.77;;;2.63;;
25349;SDS011;13302;48.796;11.978;2023-06-14T03:50:58;3.10;;;2.80;;
25349;SDS011;13302;48.796;11.978;2023-06-14T03:53:48;3.10;;;2.90;;
25349;SDS011;13302;48.796;11.978;2023-06-14T03:56:56;2.90;;;2.63;;
25349;SDS011;13302;48.796;11.978;2023-06-14T03:59:43;2.53;;;2.43;;
25349;SDS011;13302;48.796;11.978;2023-06-14T04:06:42;3.23;;;2.90;;
25349;SDS011;13302;48.796;11.978;2023-06-14T04:09:31;3.07;;;2.80;;
25349;SDS011;13302;48.796;11.978;2023-06-14T04:12:18;3.13;;;2.93;;
25349;SDS011;13302;48.796;11.978;2023-06-14T04:15:05;2.93;;;2.63;;
25349;SDS011;13302;48.796;11.978;2023-06-14T04:18:08;2.93;;;2.73;;
25349;SDS011;13302;48.796;11.978;2023-06-14T04:20:57;3.20;;;2.93;;
25349;SDS011;13302;48.796;11.978;2023-06-14T04:23:44;2.60;;;2.50;;
25349;SDS011;13302;48.796;11.978;2023-06-14T04:26:34;3.13;;;2.73;;
25349;SDS011;13302;48.796;11.978;2023-06-14T04:29:21;2.83;;;2.70;;
25349;SDS011;13302;48.796;11.978;2023-06-14T04:32:17;3.00;;;2.90;;
25349;SDS011;13302;48.796;11.978;2023-06-14T04:35:06;2.77;;;2.67;;
25349;SDS011;13302;48.796;11.978;2023-06-14T04:37:55;3.13;;;2.83;;
25349;SDS011;13302;48.796;11.978;2023-06-14T04:40:42;2.77;;;2.57;;
25349;SDS011;13302;48.796;11.978;2023-06-14T04:43:33;3.27;;;3.07;;
25349;SDS011;13302;48.796;11.978;2023-06-14T04:46:26;2.97;;;2.77;;
25349;SDS011;13302;48.796;11.978;2023-06-14T04:49:15;2.77;;;2.60;;
25349;SDS011;13302;48.796;11.978;2023-06-14T04:52:02;2.93;;;2.70;;
25349;SDS011;13302;48.796;11.978;2023-06-14T04:54:55;2.80;;;2.60;;
25349;SDS011;13302;48.796;11.978;2023-06-14T04:57:43;3.37;;;3.00;;
25349;SDS011;13302;48.796;11.978;2023-06-14T05:00:31;3.07;;;2.87;;
25349;SDS011;13302;48.796;11.978;2023-06-14T05:03:18;4.60;;;3.40;;
25349;SDS011;13302;48.796;11.978;2023-06-14T05:06:07;3.00;;;2.80;;
25349;SDS011;13302;48.796;11.978;2023-06-14T05:08:55;3.07;;;2.87;;
25349;SDS011;13302;48.796;11.978;2023-06-14T05:11:42;3.40;;;3.10;;
25349;SDS011;13302;48.796;11.978;2023-06-14T05:14:31;3.30;;;3.07;;
25349;SDS011;13302;48.796;11.978;2023-06-14T05:17:19;3.70;;;3.40;;
25349;SDS011;13302;48.796;11.978;2023-06-14T05:20:07;3.73;;;3.53;;
25349;SDS011;13302;48.796;11.978;2023-06-14T05:22:56;3.47;;;3.23;;
25349;SDS011;13302;48.796;11.978;2023-06-14T05:25:44;3.57;;;3.37;;
25349;SDS011;13302;48.796;11.978;2023-06-14T05:28:32;3.80;;;3.50;;
25349;SDS011;13302;48.796;11.978;2023-06-14T05:31:19;3.57;;;3.30;;
25349;SDS011;13302;48.796;11.978;2023-06-14T05:34:06;3.40;;;3.10;;
25349;SDS011;13302;48.796;11.978;2023-06-14T05:36:53;3.30;;;2.93;;
25349;SDS011;13302;48.796;11.978;2023-06-14T05:39:40;3.00;;;2.90;;
25349;SDS011;13302;48.796;11.978;2023-06-14T05:42:27;3.23;;;2.93;;
25349;SDS011;13302;48.796;11.978;2023-06-14T05:45:14;2.80;;;2.60;;
25349;SDS011;13302;48.796;11.978;2023-06-14T05:48:03;2.70;;;2.60;;
25349;SDS011;13302;48.796;11.978;2023-06-14T05:50:50;3.30;;;3.00;;
25349;SDS011;13302;48.796;11.978;2023-06-14T05:53:37;3.07;;;2.90;;
25349;SDS011;13302;48.796;11.978;2023-06-14T05:56:24;2.57;;;2.47;;
25349;SDS011;13302;48.796;11.978;2023-06-14T05:59:12;2.70;;;2.50;;
25349;SDS011;13302;48.796;11.978;2023-06-14T06:01:59;2.93;;;2.73;;
25349;SDS011;13302;48.796;11.978;2023-06-14T06:04:46;3.13;;;2.90;;
25349;SDS011;13302;48.796;11.978;2023-06-14T06:07:33;2.87;;;2.63;;
25349;SDS011;13302;48.796;11.978;2023-06-14T06:10:23;2.47;;;2.37;;
25349;SDS011;13302;48.796;11.978;2023-06-14T06:13:11;2.73;;;2.53;;
25349;SDS011;13302;48.796;11.978;2023-06-14T06:15:58;2.63;;;2.40;;
25349;SDS011;13302;48.796;11.978;2023-06-14T06:18:45;7.17;;;2.50;;
25349;SDS011;13302;48.796;11.978;2023-06-14T06:21:32;2.43;;;2.33;;
25349;SDS011;13302;48.796;11.978;2023-06-14T06:24:19;4.00;;;3.40;;
25349;SDS011;13302;48.796;11.978;2023-06-14T06:27:06;3.00;;;2.80;;
25349;SDS011;13302;48.796;11.978;2023-06-14T06:29:54;3.07;;;2.77;;
25349;SDS011;13302;48.796;11.978;2023-06-14T06:32:42;2.53;;;2.40;;
25349;SDS011;13302;48.796;11.978;2023-06-14T06:35:29;2.97;;;2.67;;
25349;SDS011;13302;48.796;11.978;2023-06-14T06:38:17;4.03;;;3.50;;
25349;SDS011;13302;48.796;11.978;2023-06-14T06:41:05;3.47;;;3.10;;
25349;SDS011;13302;48.796;11.978;2023-06-14T06:43:52;3.70;;;3.10;;
25349;SDS011;13302;48.796;11.978;2023-06-14T06:46:39;2.80;;;2.57;;
25349;SDS011;13302;48.796;11.978;2023-06-14T06:49:28;3.00;;;2.80;;
25349;SDS011;13302;48.796;11.978;2023-06-14T06:52:15;2.47;;;2.37;;
25349;SDS011;13302;48.796;11.978;2023-06-14T06:55:02;2.70;;;2.50;;
25349;SDS011;13302;48.796;11.978;2023-06-14T06:57:49;2.70;;;2.50;;
25349;SDS011;13302;48.796;11.978;2023-06-14T07:00:39;2.50;;;2.40;;
25349;SDS011;13302;48.796;11.978;2023-06-14T07:03:26;2.40;;;2.20;;
25349;SDS011;13302;48.796;11.978;2023-06-14T07:06:13;2.50;;;2.40;;
25349;SDS011;13302;48.796;11.978;2023-06-14T07:09:01;2.50;;;2.40;;
25349;SDS011;13302;48.796;11.978;2023-06-14T07:11:48;3.10;;;2.20;;
25349;SDS011;13302;48.796;11.978;2023-06-14T07:14:35;2.43;;;2.33;;
25349;SDS011;13302;48.796;11.978;2023-06-14T07:17:22;2.67;;;2.50;;
25349;SDS011;13302;48.796;11.978;2023-06-14T07:20:09;2.60;;;2.50;;
25349;SDS011;13302;48.796;11.978;2023-06-14T07:23:00;3.40;;;2.53;;
25349;SDS011;13302;48.796;11.978;2023-06-14T07:25:47;3.33;;;2.50;;
25349;SDS011;13302;48.796;11.978;2023-06-14T07:28:34;2.77;;;2.50;;
25349;SDS011;13302;48.796;11.978;2023-06-14T07:31:24;2.50;;;2.30;;
25349;SDS011;13302;48.796;11.978;2023-06-14T07:34:13;2.57;;;2.37;;
25349;SDS011;13302;48.796;11.978;2023-06-14T07:37:00;2.70;;;2.50;;
25349;SDS011;13302;48.796;11.978;2023-06-14T07:39:47;2.80;;;2.60;;
25349;SDS011;13302;48.796;11.978;2023-06-14T07:42:34;2.87;;;2.67;;
25349;SDS011;13302;48.796;11.978;2023-06-14T07:45:22;2.67;;;2.27;;
25349;SDS011;13302;48.796;11.978;2023-06-14T07:48:09;2.47;;;2.37;;
25349;SDS011;13302;48.796;11.978;2023-06-14T07:50:56;3.20;;;2.57;;
25349;SDS011;13302;48.796;11.978;2023-06-14T07:53:43;2.90;;;2.70;;
25349;SDS011;13302;48.796;11.978;2023-06-14T07:56:30;2.47;;;2.37;;
25349;SDS011;13302;48.796;11.978;2023-06-14T07:59:17;2.60;;;2.40;;
25349;SDS011;13302;48.796;11.978;2023-06-14T08:02:05;2.47;;;2.27;;
25349;SDS011;13302;48.796;11.978;2023-06-14T08:04:52;2.73;;;2.53;;
25349;SDS011;13302;48.796;11.978;2023-06-14T08:07:39;2.73;;;2.53;;
25349;SDS011;13302;48.796;11.978;2023-06-14T08:10:27;2.43;;;2.33;;
25349;SDS011;13302;48.796;11.978;2023-06-14T08:13:14;2.30;;;2.20;;
25349;SDS011;13302;48.796;11.978;2023-06-14T08:16:01;2.63;;;2.43;;
25349;SDS011;13302;48.796;11.978;2023-06-14T08:18:51;2.47;;;2.27;;
25349;SDS011;13302;48.796;11.978;2023-06-14T08:21:38;2.33;;;2.23;;
25349;SDS011;13302;48.796;11.978;2023-06-14T08:24:26;2.00;;;2.00;;
25349;SDS011;13302;48.796;11.978;2023-06-14T08:27:16;2.93;;;2.67;;
25349;SDS011;13302;48.796;11.978;2023-06-14T08:30:03;2.97;;;2.70;;
25349;SDS011;13302;48.796;11.978;2023-06-14T08:32:50;4.20;;;2.50;;
25349;SDS011;13302;48.796;11.978;2023-06-14T08:35:56;2.77;;;2.57;;
25349;SDS011;13302;48.796;11.978;2023-06-14T08:38:43;2.90;;;2.70;;
25349;SDS011;13302;48.796;11.978;2023-06-14T08:41:30;3.00;;;2.20;;
25349;SDS011;13302;48.796;11.978;2023-06-14T08:44:17;2.90;;;2.70;;
25349;SDS011;13302;48.796;11.978;2023-06-14T08:47:05;2.77;;;2.57;;
25349;SDS011;13302;48.796;11.978;2023-06-14T08:49:53;2.70;;;2.50;;
25349;SDS011;13302;48.796;11.978;2023-06-14T08:52:44;3.10;;;2.80;;
25349;SDS011;13302;48.796;11.978;2023-06-14T08:55:36;3.20;;;2.70;;
25349;SDS011;13302;48.796;11.978;2023-06-14T08:58:29;2.60;;;2.50;;
25349;SDS011;13302;48.796;11.978;2023-06-14T09:01:18;2.30;;;2.20;;
25349;SDS011;13302;48.796;11.978;2023-06-14T09:04:06;2.47;;;2.27;;
25349;SDS011;13302;48.796;11.978;2023-06-14T09:06:53;2.43;;;2.33;;
25349;SDS011;13302;48.796;11.978;2023-06-14T09:09:41;2.47;;;2.23;;
25349;SDS011;13302;48.796;11.978;2023-06-14T09:12:48;2.47;;;2.27;;
25349;SDS011;13302;48.796;11.978;2023-06-14T09:15:35;2.53;;;2.33;;
25349;SDS011;13302;48.796;11.978;2023-06-14T09:18:23;2.53;;;2.33;;
25349;SDS011;13302;48.796;11.978;2023-06-14T09:21:21;2.30;;;2.20;;
25349;SDS011;13302;48.796;11.978;2023-06-14T09:24:12;2.50;;;2.40;;
25349;SDS011;13302;48.796;11.978;2023-06-14T09:27:00;2.40;;;2.30;;
25349;SDS011;13302;48.796;11.978;2023-06-14T09:29:48;2.47;;;2.27;;
25349;SDS011;13302;48.796;11.978;2023-06-14T09:32:38;2.33;;;1.93;;
25349;SDS011;13302;48.796;11.978;2023-06-14T09:35:30;2.00;;;1.93;;
25349;SDS011;13302;48.796;11.978;2023-06-14T09:38:18;2.20;;;2.10;;
25349;SDS011;13302;48.796;11.978;2023-06-14T09:41:05;2.40;;;2.20;;
25349;SDS011;13302;48.796;11.978;2023-06-14T09:43:52;2.40;;;2.27;;
25349;SDS011;13302;48.796;11.978;2023-06-14T09:46:44;2.43;;;2.23;;
25349;SDS011;13302;48.796;11.978;2023-06-14T09:49:31;3.77;;;2.53;;
25349;SDS011;13302;48.796;11.978;2023-06-14T09:52:20;2.30;;;2.10;;
25349;SDS011;13302;48.796;11.978;2023-06-14T09:55:13;2.00;;;1.90;;
25349;SDS011;13302;48.796;11.978;2023-06-14T09:58:04;2.10;;;2.00;;
25349;SDS011;13302;48.796;11.978;2023-06-14T10:00:54;2.50;;;2.30;;
25349;SDS011;13302;48.796;11.978;2023-06-14T10:03:42;3.40;;;2.27;;
25349;SDS011;13302;48.796;11.978;2023-06-14T10:06:36;2.50;;;2.30;;
25349;SDS011;13302;48.796;11.978;2023-06-14T10:09:26;2.20;;;2.10;;
25349;SDS011;13302;48.796;11.978;2023-06-14T10:12:17;3.00;;;1.97;;
25349;SDS011;13302;48.796;11.978;2023-06-14T10:15:08;2.20;;;2.10;;
25349;SDS011;13302;48.796;11.978;2023-06-14T10:18:02;2.53;;;2.43;;
25349;SDS011;13302;48.796;11.978;2023-06-14T10:23:55;2.33;;;2.23;;
25349;SDS011;13302;48.796;11.978;2023-06-14T10:26:51;2.17;;;2.07;;
25349;SDS011;13302;48.796;11.978;2023-06-14T10:33:02;2.57;;;2.10;;
25349;SDS011;13302;48.796;11.978;2023-06-14T10:36:06;1.83;;;1.73;;
25349;SDS011;13302;48.796;11.978;2023-06-14T10:38:58;2.33;;;2.23;;
25349;SDS011;13302;48.796;11.978;2023-06-14T10:41:53;2.10;;;2.00;;
25349;SDS011;13302;48.796;11.978;2023-06-14T10:47:29;2.43;;;2.30;;
25349;SDS011;13302;48.796;11.978;2023-06-14T10:50:27;2.27;;;2.17;;
25349;SDS011;13302;48.796;11.978;2023-06-14T10:53:22;2.40;;;2.30;;
25349;SDS011;13302;48.796;11.978;2023-06-14T10:56:22;2.93;;;2.17;;
25349;SDS011;13302;48.796;11.978;2023-06-14T10:59:11;2.30;;;2.20;;
25349;SDS011;13302;48.796;11.978;2023-06-14T11:05:26;2.10;;;2.00;;
25349;SDS011;13302;48.796;11.978;2023-06-14T11:11:13;2.53;;;2.37;;
25349;SDS011;13302;48.796;11.978;2023-06-14T11:14:01;2.50;;;2.30;;
25349;SDS011;13302;48.796;11.978;2023-06-14T11:16:49;2.37;;;2.27;;
25349;SDS011;13302;48.796;11.978;2023-06-14T11:19:37;2.30;;;2.20;;
25349;SDS011;13302;48.796;11.978;2023-06-14T11:22:24;2.63;;;1.97;;
25349;SDS011;13302;48.796;11.978;2023-06-14T11:25:11;2.57;;;2.47;;
25349;SDS011;13302;48.796;11.978;2023-06-14T11:27:59;2.87;;;2.23;;
25349;SDS011;13302;48.796;11.978;2023-06-14T11:30:47;2.83;;;2.73;;
25349;SDS011;13302;48.796;11.978;2023-06-14T11:33:35;2.20;;;2.10;;
25349;SDS011;13302;48.796;11.978;2023-06-14T11:36:22;2.70;;;2.43;;
25349;SDS011;13302;48.796;11.978;2023-06-14T11:39:13;2.13;;;2.03;;
25349;SDS011;13302;48.796;11.978;2023-06-14T11:42:00;2.40;;;2.23;;
25349;SDS011;13302;48.796;11.978;2023-06-14T11:44:48;3.50;;;2.40;;
25349;SDS011;13302;48.796;11.978;2023-06-14T11:47:36;2.13;;;2.00;;
25349;SDS011;13302;48.796;11.978;2023-06-14T11:50:25;2.37;;;2.27;;
25349;SDS011;13302;48.796;11.978;2023-06-14T11:53:13;2.20;;;2.10;;
25349;SDS011;13302;48.796;11.978;2023-06-14T11:56:00;2.40;;;2.30;;
25349;SDS011;13302;48.796;11.978;2023-06-14T11:58:48;2.13;;;2.00;;
25349;SDS011;13302;48.796;11.978;2023-06-14T12:01:36;2.40;;;2.30;;
25349;SDS011;13302;48.796;11.978;2023-06-14T12:04:29;2.30;;;2.20;;
25349;SDS011;13302;48.796;11.978;2023-06-14T12:07:16;1.90;;;1.90;;
25349;SDS011;13302;48.796;11.978;2023-06-14T12:10:07;2.50;;;2.40;;
25349;SDS011;13302;48.796;11.978;2023-06-14T12:12:58;2.40;;;2.30;;
25349;SDS011;13302;48.796;11.978;2023-06-14T12:15:53;2.70;;;2.50;;
25349;SDS011;13302;48.796;11.978;2023-06-14T12:18:41;2.70;;;2.50;;
25349;SDS011;13302;48.796;11.978;2023-06-14T12:21:30;2.73;;;2.20;;
25349;SDS011;13302;48.796;11.978;2023-06-14T12:24:19;2.67;;;2.47;;
25349;SDS011;13302;48.796;11.978;2023-06-14T12:27:07;2.63;;;2.43;;
25349;SDS011;13302;48.796;11.978;2023-06-14T12:30:01;2.87;;;2.67;;
25349;SDS011;13302;48.796;11.978;2023-06-14T12:32:51;2.50;;;2.40;;
25349;SDS011;13302;48.796;11.978;2023-06-14T12:35:38;2.27;;;2.17;;
25349;SDS011;13302;48.796;11.978;2023-06-14T12:38:25;2.70;;;2.60;;
25349;SDS011;13302;48.796;11.978;2023-06-14T12:41:12;2.40;;;2.30;;
25349;SDS011;13302;48.796;11.978;2023-06-14T12:44:01;2.50;;;2.30;;
25349;SDS011;13302;48.796;11.978;2023-06-14T12:46:51;2.53;;;2.43;;
25349;SDS011;13302;48.796;11.978;2023-06-14T12:49:40;2.20;;;2.10;;
25349;SDS011;13302;48.796;11.978;2023-06-14T12:52:27;2.50;;;2.30;;
25349;SDS011;13302;48.796;11.978;2023-06-14T12:55:15;2.50;;;2.40;;
25349;SDS011;13302;48.796;11.978;2023-06-14T12:58:02;2.43;;;2.30;;
25349;SDS011;13302;48.796;11.978;2023-06-14T13:00:50;2.67;;;2.47;;
25349;SDS011;13302;48.796;11.978;2023-06-14T13:03:37;2.47;;;2.37;;
25349;SDS011;13302;48.796;11.978;2023-06-14T13:06:25;2.10;;;1.97;;
25349;SDS011;13302;48.796;11.978;2023-06-14T13:09:12;2.40;;;2.30;;
25349;SDS011;13302;48.796;11.978;2023-06-14T13:11:59;2.20;;;2.10;;
25349;SDS011;13302;48.796;11.978;2023-06-14T13:14:46;2.40;;;2.30;;
25349;SDS011;13302;48.796;11.978;2023-06-14T13:17:34;3.07;;;2.77;;
25349;SDS011;13302;48.796;11.978;2023-06-14T13:20:25;3.00;;;2.73;;
25349;SDS011;13302;48.796;11.978;2023-06-14T13:23:12;2.33;;;2.13;;
25349;SDS011;13302;48.796;11.978;2023-06-14T13:26:00;2.10;;;2.00;;
25349;SDS011;13302;48.796;11.978;2023-06-14T13:28:49;3.43;;;2.30;;
25349;SDS011;13302;48.796;11.978;2023-06-14T13:31:38;2.37;;;2.27;;
25349;SDS011;13302;48.796;11.978;2023-06-14T13:34:25;2.60;;;2.50;;
25349;SDS011;13302;48.796;11.978;2023-06-14T13:37:12;2.70;;;2.50;;
25349;SDS011;13302;48.796;11.978;2023-06-14T13:39:59;2.87;;;2.53;;
25349;SDS011;13302;48.796;11.978;2023-06-14T13:42:46;2.90;;;2.70;;
25349;SDS011;13302;48.796;11.978;2023-06-14T13:45:33;2.47;;;2.37;;
25349;SDS011;13302;48.796;11.978;2023-06-14T13:48:21;2.20;;;2.10;;
25349;SDS011;13302;48.796;11.978;2023-06-14T13:51:08;2.40;;;2.30;;
25349;SDS011;13302;48.796;11.978;2023-06-14T13:53:55;2.40;;;2.30;;
25349;SDS011;13302;48.796;11.978;2023-06-14T13:56:42;2.40;;;2.30;;
25349;SDS011;13302;48.796;11.978;2023-06-14T13:59:29;2.10;;;2.00;;
25349;SDS011;13302;48.796;11.978;2023-06-14T14:02:17;2.70;;;2.50;;
25349;SDS011;13302;48.796;11.978;2023-06-14T14:05:05;2.30;;;2.13;;
25349;SDS011;13302;48.796;11.978;2023-06-14T14:07:52;2.73;;;2.53;;
25349;SDS011;13302;48.796;11.978;2023-06-14T14:10:39;2.27;;;2.17;;
25349;SDS011;13302;48.796;11.978;2023-06-14T14:13:26;2.33;;;2.23;;
25349;SDS011;13302;48.796;11.978;2023-06-14T14:16:13;2.47;;;2.37;;
25349;SDS011;13302;48.796;11.978;2023-06-14T14:19:00;2.40;;;2.30;;
25349;SDS011;13302;48.796;11.978;2023-06-14T14:21:48;5.07;;;2.20;;
25349;SDS011;13302;48.796;11.978;2023-06-14T14:24:36;3.67;;;2.40;;
25349;SDS011;13302;48.796;11.978;2023-06-14T14:27:23;2.60;;;2.50;;
25349;SDS011;13302;48.796;11.978;2023-06-14T14:30:10;2.87;;;2.70;;
25349;SDS011;13302;48.796;11.978;2023-06-14T14:32:58;3.67;;;2.33;;
25349;SDS011;13302;48.796;11.978;2023-06-14T14:35:45;2.33;;;2.30;;
25349;SDS011;13302;48.796;11.978;2023-06-14T14:38:32;2.60;;;2.50;;
25349;SDS011;13302;48.796;11.978;2023-06-14T14:41:19;2.63;;;2.43;;
25349;SDS011;13302;48.796;11.978;2023-06-14T14:44:06;2.80;;;2.60;;
25349;SDS011;13302;48.796;11.978;2023-06-14T14:46:53;2.27;;;2.17;;
25349;SDS011;13302;48.796;11.978;2023-06-14T14:49:41;2.60;;;2.50;;
25349;SDS011;13302;48.796;11.978;2023-06-14T14:52:28;2.57;;;2.37;;
25349;SDS011;13302;48.796;11.978;2023-06-14T14:55:15;2.50;;;2.40;;
25349;SDS011;13302;48.796;11.978;2023-06-14T14:58:02;2.23;;;2.13;;
25349;SDS011;13302;48.796;11.978;2023-06-14T15:00:49;2.57;;;2.43;;
25349;SDS011;13302;48.796;11.978;2023-06-14T15:03:37;2.83;;;2.67;;
25349;SDS011;13302;48.796;11.978;2023-06-14T15:06:43;2.43;;;2.33;;
25349;SDS011;13302;48.796;11.978;2023-06-14T15:09:31;2.40;;;2.30;;
25349;SDS011;13302;48.796;11.978;2023-06-14T15:12:18;2.30;;;2.20;;
25349;SDS011;13302;48.796;11.978;2023-06-14T15:15:07;2.57;;;2.37;;
25349;SDS011;13302;48.796;11.978;2023-06-14T15:17:56;2.60;;;2.40;;
25349;SDS011;13302;48.796;11.978;2023-06-14T15:20:43;2.70;;;2.60;;
25349;SDS011;13302;48.796;11.978;2023-06-14T15:23:30;2.50;;;2.40;;
25349;SDS011;13302;48.796;11.978;2023-06-14T15:26:17;2.20;;;2.10;;
25349;SDS011;13302;48.796;11.978;2023-06-14T15:29:05;2.70;;;2.60;;
25349;SDS011;13302;48.796;11.978;2023-06-14T15:31:52;2.70;;;2.50;;
25349;SDS011;13302;48.796;11.978;2023-06-14T15:34:41;2.30;;;2.20;;
25349;SDS011;13302;48.796;11.978;2023-06-14T15:37:28;2.27;;;2.17;;
25349;SDS011;13302;48.796;11.978;2023-06-14T15:40:15;2.03;;;1.93;;
25349;SDS011;13302;48.796;11.978;2023-06-14T15:43:03;2.87;;;2.57;;
25349;SDS011;13302;48.796;11.978;2023-06-14T15:45:50;1.90;;;1.90;;
25349;SDS011;13302;48.796;11.978;2023-06-14T15:48:37;2.33;;;2.13;;
25349;SDS011;13302;48.796;11.978;2023-06-14T15:51:24;2.50;;;2.30;;
25349;SDS011;13302;48.796;11.978;2023-06-14T15:54:11;2.50;;;2.40;;
25349;SDS011;13302;48.796;11.978;2023-06-14T15:56:58;2.17;;;2.07;;
25349;SDS011;13302;48.796;11.978;2023-06-14T15:59:45;2.50;;;2.40;;
25349;SDS011;13302;48.796;11.978;2023-06-14T16:02:32;2.53;;;2.43;;
25349;SDS011;13302;48.796;11.978;2023-06-14T16:05:19;3.27;;;2.47;;
25349;SDS011;13302;48.796;11.978;2023-06-14T16:08:07;2.77;;;2.57;;
25349;SDS011;13302;48.796;11.978;2023-06-14T16:10:54;2.37;;;2.27;;
25349;SDS011;13302;48.796;11.978;2023-06-14T16:13:41;2.40;;;2.30;;
25349;SDS011;13302;48.796;11.978;2023-06-14T16:16:28;2.73;;;2.53;;
25349;SDS011;13302;48.796;11.978;2023-06-14T16:19:16;2.50;;;2.30;;
25349;SDS011;13302;48.796;11.978;2023-06-14T16:22:03;2.57;;;2.47;;
25349;SDS011;13302;48.796;11.978;2023-06-14T16:24:53;2.30;;;2.20;;
25349;SDS011;13302;48.796;11.978;2023-06-14T16:27:40;3.27;;;1.97;;
25349;SDS011;13302;48.796;11.978;2023-06-14T16:30:27;2.40;;;2.30;;
25349;SDS011;13302;48.796;11.978;2023-06-14T16:33:14;3.70;;;2.20;;
25349;SDS011;13302;48.796;11.978;2023-06-14T16:36:01;2.30;;;2.07;;
25349;SDS011;13302;48.796;11.978;2023-06-14T16:38:48;2.30;;;2.20;;
25349;SDS011;13302;48.796;11.978;2023-06-14T16:41:36;2.50;;;2.30;;
25349;SDS011;13302;48.796;11.978;2023-06-14T16:44:23;2.17;;;2.07;;
25349;SDS011;13302;48.796;11.978;2023-06-14T16:47:11;1.90;;;1.90;;
25349;SDS011;13302;48.796;11.978;2023-06-14T16:49:59;2.20;;;1.97;;
25349;SDS011;13302;48.796;11.978;2023-06-14T16:52:46;2.13;;;2.03;;
25349;SDS011;13302;48.796;11.978;2023-06-14T16:55:33;2.50;;;2.30;;
25349;SDS011;13302;48.796;11.978;2023-06-14T16:58:21;2.13;;;2.10;;
25349;SDS011;13302;48.796;11.978;2023-06-14T17:01:08;2.40;;;2.30;;